Time;durP1;ratioP1;P1;durP2;ratioP2;P2;SDS_P1;SDS_P2;PMS_P1;PMS_P2;Temp;Humidity;BMP_temperature;BMP_pressure;BME280_temperature;BME280_humidity;BME280_pressure;Samples;Min_cycle;Max_cycle;Signal;HPM_P1;HPM_P2
2023/04/22 00:00:27;;;;;;;31.83;17.60;;;11.10;97.30;;;;;;6242914;22;20023;-78
2023/04/22 00:02:55;;;;;;;33.42;17.92;;;11.10;97.50;;;;;;6243320;22;20350;-78
2023/04/22 00:05:22;;;;;;;33.25;17.83;;;11.10;97.40;;;;;;6242514;22;20081;-77
2023/04/22 00:07:49;;;;;;;29.15;17.00;;;11.10;97.70;;;;;;6271856;22;20115;-78
2023/04/22 00:10:16;;;;;;;30.85;17.65;;;11.10;97.60;;;;;;6216622;22;20015;-78
2023/04/22 00:12:43;;;;;;;35.42;18.05;;;11.10;97.70;;;;;;6271187;22;20038;-78
2023/04/22 00:15:11;;;;;;;30.63;17.77;;;11.10;98.30;;;;;;6274389;22;20024;-78
2023/04/22 00:17:39;;;;;;;32.70;16.55;;;11.10;99.10;;;;;;6244873;22;20024;-78
2023/04/22 00:20:06;;;;;;;32.78;15.38;;;11.10;98.80;;;;;;6273906;22;20037;-77
2023/04/22 00:22:34;;;;;;;29.75;15.57;;;11.10;98.30;;;;;;6244180;22;20020;-78
2023/04/22 00:25:01;;;;;;;31.48;16.38;;;11.10;99.50;;;;;;6273378;22;20012;-78
2023/04/22 00:27:28;;;;;;;29.30;15.55;;;11.10;99.70;;;;;;6246234;22;20058;-78
2023/04/22 00:29:55;;;;;;;33.38;17.25;;;11.10;99.30;;;;;;6243715;22;20034;-78
2023/04/22 00:32:22;;;;;;;32.50;15.60;;;11.10;99.40;;;;;;6246766;22;20061;-78
2023/04/22 00:34:50;;;;;;;31.73;17.77;;;11.10;99.70;;;;;;6243865;22;20024;-78
2023/04/22 00:37:17;;;;;;;34.22;17.13;;;11.10;99.50;;;;;;6242917;22;20034;-78
2023/04/22 00:39:44;;;;;;;30.63;16.15;;;11.10;99.50;;;;;;6242566;22;20023;-78
2023/04/22 00:42:12;;;;;;;34.90;16.15;;;11.10;99.50;;;;;;6243877;22;20016;-77
2023/04/22 00:44:41;;;;;;;33.00;16.55;;;11.10;99.70;;;;;;6245097;22;20443;-78
2023/04/22 00:47:08;;;;;;;31.52;15.35;;;11.00;99.70;;;;;;6243847;22;20050;-78
2023/04/22 00:49:36;;;;;;;27.25;14.13;;;11.00;98.70;;;;;;6245231;22;20023;-78
2023/04/22 00:52:03;;;;;;;26.52;14.50;;;11.00;98.60;;;;;;6242264;22;20142;-79
2023/04/22 00:54:33;;;;;;;27.30;15.70;;;11.00;98.40;;;;;;6271062;22;20030;-78
2023/04/22 00:57:01;;;;;;;30.17;16.17;;;11.00;99.20;;;;;;6244775;22;20328;-78
2023/04/22 00:59:29;;;;;;;28.75;14.02;;;11.00;98.80;;;;;;6243853;22;20043;-78
2023/04/22 01:01:56;;;;;;;25.23;14.73;;;11.00;98.70;;;;;;6246822;22;20050;-78
2023/04/22 01:04:24;;;;;;;28.42;14.35;;;11.00;99.10;;;;;;6244964;22;20051;-78
2023/04/22 01:06:55;;;;;;;29.92;15.15;;;10.90;98.60;;;;;;6218231;22;20028;-78
2023/04/22 01:09:22;;;;;;;26.50;14.23;;;10.90;98.60;;;;;;6249090;22;20047;-78
2023/04/22 01:11:49;;;;;;;28.27;14.07;;;11.00;99.30;;;;;;6222599;22;20030;-78
2023/04/22 01:14:17;;;;;;;25.23;13.32;;;10.90;99.10;;;;;;6243039;22;20596;-78
2023/04/22 01:16:45;;;;;;;25.45;14.43;;;11.00;99.20;;;;;;6218131;22;20020;-78
2023/04/22 01:19:12;;;;;;;26.20;14.55;;;10.90;99.90;;;;;;6242464;22;20041;-78
2023/04/22 01:21:42;;;;;;;29.20;15.23;;;10.90;99.90;;;;;;6215950;22;20503;-78
2023/04/22 01:24:09;;;;;;;25.27;14.27;;;10.90;99.90;;;;;;6221851;22;20048;-77
2023/04/22 01:26:37;;;;;;;28.30;14.23;;;10.90;99.90;;;;;;6271518;22;20460;-78
2023/04/22 01:29:05;;;;;;;30.40;15.65;;;10.80;99.90;;;;;;6247151;22;20027;-78
2023/04/22 01:31:32;;;;;;;30.42;14.68;;;10.80;99.90;;;;;;6243484;22;20019;-78
2023/04/22 01:34:00;;;;;;;25.30;13.18;;;10.80;99.90;;;;;;6243238;22;20023;-78
2023/04/22 01:36:27;;;;;;;25.55;13.57;;;10.80;99.90;;;;;;6249520;22;20077;-78
2023/04/22 01:38:55;;;;;;;49.80;17.02;;;10.80;99.90;;;;;;6245159;22;20023;-77
2023/04/22 01:41:25;;;;;;;27.30;15.13;;;10.60;99.90;;;;;;6244135;22;20111;-78
2023/04/22 01:43:53;;;;;;;30.13;14.50;;;10.50;99.90;;;;;;6243526;22;20521;-78
2023/04/22 01:46:20;;;;;;;25.00;13.57;;;10.50;99.90;;;;;;6217265;22;20333;-78
2023/04/22 01:48:50;;;;;;;22.77;13.05;;;10.60;99.90;;;;;;6243311;22;20019;-78
2023/04/22 01:51:22;;;;;;;23.92;13.25;;;10.60;99.90;;;;;;6244272;22;20098;-78
2023/04/22 01:53:49;;;;;;;25.00;12.98;;;10.60;99.90;;;;;;6245241;22;20054;-78
2023/04/22 01:56:17;;;;;;;24.38;12.52;;;10.60;99.90;;;;;;6244215;22;20020;-78
2023/04/22 01:58:44;;;;;;;23.95;12.23;;;10.50;99.90;;;;;;6243859;22;20023;-78
2023/04/22 02:01:13;;;;;;;19.90;11.75;;;10.50;99.60;;;;;;6250103;22;20035;-78
2023/04/22 02:03:40;;;;;;;20.50;11.77;;;10.50;99.40;;;;;;6219252;22;20039;-78
2023/04/22 02:06:09;;;;;;;22.98;12.27;;;10.60;99.70;;;;;;6245981;22;20058;-78
2023/04/22 02:08:37;;;;;;;19.73;11.80;;;10.60;99.20;;;;;;6274108;22;20019;-78
2023/04/22 02:11:04;;;;;;;18.90;11.57;;;10.50;99.50;;;;;;6218298;22;20074;-78
2023/04/22 02:13:40;;;;;;;17.48;10.82;;;10.50;99.80;;;;;;6244376;22;20178;-78
2023/04/22 02:16:07;;;;;;;17.83;10.38;;;10.50;99.80;;;;;;6242986;22;20502;-78
2023/04/22 02:18:34;;;;;;;21.20;11.20;;;10.50;99.90;;;;;;6218978;22;20027;-77
2023/04/22 02:21:02;;;;;;;16.40;10.30;;;10.50;99.40;;;;;;6271739;22;20408;-77
2023/04/22 02:23:29;;;;;;;26.45;11.68;;;10.50;99.70;;;;;;6241815;22;20023;-78
2023/04/22 02:25:56;;;;;;;21.98;10.85;;;10.50;99.90;;;;;;6217871;22;20070;-78
2023/04/22 02:28:23;;;;;;;19.17;11.25;;;10.40;99.90;;;;;;6217136;22;20027;-78
2023/04/22 02:30:50;;;;;;;15.88;9.65;;;10.40;99.90;;;;;;6218669;22;20030;-78
2023/04/22 02:33:17;;;;;;;21.33;10.73;;;10.30;99.90;;;;;;6240989;22;20046;-78
2023/04/22 02:35:45;;;;;;;19.25;10.68;;;10.30;99.90;;;;;;6248563;22;20023;-78
2023/04/22 02:38:17;;;;;;;20.00;11.27;;;10.30;99.90;;;;;;6250900;22;20020;-78
2023/04/22 02:40:44;;;;;;;20.52;11.48;;;10.30;99.90;;;;;;6248799;22;20061;-78
2023/04/22 02:43:12;;;;;;;19.67;11.00;;;10.30;99.80;;;;;;6249601;22;20026;-78
2023/04/22 02:45:39;;;;;;;20.50;10.35;;;10.30;99.90;;;;;;6248547;22;20683;-78
2023/04/22 02:48:07;;;;;;;16.33;10.93;;;10.30;99.90;;;;;;6251053;22;20019;-78
2023/04/22 02:50:35;;;;;;;21.63;10.88;;;10.20;99.50;;;;;;6226167;22;20019;-78
2023/04/22 02:53:02;;;;;;;18.70;9.93;;;10.20;99.40;;;;;;6226076;22;20020;-78
2023/04/22 02:55:29;;;;;;;16.90;9.85;;;10.20;99.30;;;;;;6250425;22;20019;-78
2023/04/22 02:57:56;;;;;;;21.67;10.50;;;10.10;99.50;;;;;;6250274;22;20044;-78
2023/04/22 03:00:23;;;;;;;19.67;10.55;;;10.10;99.70;;;;;;6225039;22;20051;-78
2023/04/22 03:02:50;;;;;;;22.27;11.23;;;10.10;99.90;;;;;;6250210;22;20015;-78
2023/04/22 03:05:21;;;;;;;19.00;10.90;;;10.00;99.90;;;;;;6225638;22;20106;-78
2023/04/22 03:07:49;;;;;;;21.25;10.90;;;10.00;99.90;;;;;;6250124;22;20016;-78
2023/04/22 03:10:16;;;;;;;18.17;10.43;;;10.00;99.90;;;;;;6250283;22;20347;-78
2023/04/22 03:12:43;;;;;;;16.13;9.32;;;10.00;99.90;;;;;;6224492;22;20030;-78
2023/04/22 03:15:11;;;;;;;17.70;9.23;;;9.90;99.90;;;;;;6226601;22;20093;-77
2023/04/22 03:17:38;;;;;;;19.00;11.13;;;9.90;99.90;;;;;;6225380;22;20098;-78
2023/04/22 03:20:10;;;;;;;17.35;9.27;;;9.90;99.90;;;;;;6252262;22;20024;-78
2023/04/22 03:22:37;;;;;;;18.55;9.63;;;9.90;99.90;;;;;;6250443;22;20026;-78
2023/04/22 03:25:06;;;;;;;15.48;8.80;;;9.90;99.80;;;;;;6226892;22;20016;-78
2023/04/22 03:27:33;;;;;;;16.95;9.23;;;9.90;99.90;;;;;;6249322;22;20027;-78
2023/04/22 03:30:01;;;;;;;16.15;8.90;;;9.80;99.90;;;;;;6248120;22;20110;-78
2023/04/22 03:32:28;;;;;;;16.35;9.48;;;9.90;99.90;;;;;;6224584;22;20024;-78
2023/04/22 03:35:12;;;;;;;15.93;8.52;;;9.80;99.90;;;;;;6229277;22;20016;-77
2023/04/22 03:37:39;;;;;;;17.27;9.98;;;9.80;99.90;;;;;;6249586;22;20099;-78
2023/04/22 03:40:10;;;;;;;17.48;9.65;;;9.80;99.90;;;;;;6250153;22;20109;-78
2023/04/22 03:42:39;;;;;;;14.75;9.15;;;9.80;99.90;;;;;;6250697;22;20050;-78
2023/04/22 03:45:07;;;;;;;15.27;8.77;;;9.70;99.90;;;;;;6226364;22;20020;-78
2023/04/22 03:47:38;;;;;;;18.27;9.63;;;9.70;99.90;;;;;;6225969;22;20051;-78
2023/04/22 03:50:16;;;;;;;15.57;9.48;;;9.70;99.90;;;;;;6228908;22;20020;-78
2023/04/22 03:52:44;;;;;;;18.17;9.40;;;9.70;99.90;;;;;;6225653;22;20027;-78
2023/04/22 03:55:12;;;;;;;15.68;9.57;;;9.70;99.90;;;;;;6250339;22;20084;-78
2023/04/22 03:57:39;;;;;;;16.85;9.10;;;9.70;99.90;;;;;;6224328;22;20050;-78
2023/04/22 04:00:07;;;;;;;18.90;9.25;;;9.70;99.90;;;;;;6228418;22;20020;-77
2023/04/22 04:02:40;;;;;;;16.83;9.50;;;9.70;99.90;;;;;;6277974;22;20027;-78
2023/04/22 04:05:11;;;;;;;15.48;9.43;;;9.70;99.90;;;;;;6225835;22;20019;-78
2023/04/22 04:07:39;;;;;;;17.92;10.20;;;9.70;99.90;;;;;;6224960;22;20798;-78
2023/04/22 04:10:07;;;;;;;17.10;8.50;;;9.60;99.90;;;;;;6223125;22;20016;-78
2023/04/22 04:12:34;;;;;;;17.33;9.32;;;9.70;99.90;;;;;;6224777;22;20055;-78
2023/04/22 04:15:01;;;;;;;18.88;9.13;;;9.70;99.90;;;;;;6224526;22;20522;-78
2023/04/22 04:17:29;;;;;;;17.52;9.40;;;9.60;99.90;;;;;;6225427;22;20020;-78
2023/04/22 04:19:56;;;;;;;16.90;9.52;;;9.70;99.90;;;;;;6225076;22;20078;-78
2023/04/22 04:22:26;;;;;;;19.23;9.82;;;9.60;99.90;;;;;;6225848;22;20024;-78
2023/04/22 04:24:57;;;;;;;;;;;9.60;99.90;;;;;;6227080;22;20528;-78
2023/04/22 04:27:30;;;;;;;15.33;9.30;;;9.70;99.90;;;;;;6249141;22;19926;-78
2023/04/22 04:29:57;;;;;;;15.05;9.38;;;9.60;99.90;;;;;;6225927;22;20027;-78
2023/04/22 04:32:44;;;;;;;19.70;9.82;;;9.70;99.90;;;;;;6230095;22;20027;-78
2023/04/22 04:35:13;;;;;;;17.77;9.32;;;9.60;99.90;;;;;;6250992;22;20034;-78
2023/04/22 04:37:45;;;;;;;16.58;9.40;;;9.70;99.90;;;;;;6249797;22;20752;-77
2023/04/22 04:40:13;;;;;;;17.25;9.40;;;9.70;99.90;;;;;;6250063;22;20015;-78
2023/04/22 04:42:46;;;;;;;;;;;9.70;99.90;;;;;;6226340;22;20015;-78
2023/04/22 04:45:19;;;;;;;18.00;9.50;;;9.70;99.90;;;;;;6226634;22;20006;-78
2023/04/22 04:47:49;;;;;;;19.55;10.18;;;9.70;99.90;;;;;;6252006;22;20030;-78
2023/04/22 04:50:21;;;;;;;17.17;9.18;;;9.80;99.90;;;;;;6250869;22;20490;-78
2023/04/22 04:52:49;;;;;;;18.73;10.65;;;9.80;99.90;;;;;;6251352;22;20027;-78
2023/04/22 04:55:24;;;;;;;19.58;9.45;;;9.80;99.90;;;;;;6249915;22;20098;-78
2023/04/22 04:57:51;;;;;;;21.38;10.23;;;9.80;99.90;;;;;;6224284;22;20460;-78
2023/04/22 05:00:19;;;;;;;19.38;10.10;;;9.90;99.90;;;;;;6250853;22;20038;-78
2023/04/22 05:02:46;;;;;;;26.63;11.15;;;9.90;99.90;;;;;;6252816;22;20023;-78
2023/04/22 05:05:14;;;;;;;20.33;10.88;;;9.90;99.90;;;;;;6251689;22;20024;-78
2023/04/22 05:07:42;;;;;;;19.92;11.00;;;10.00;99.90;;;;;;6250327;22;20019;-78
2023/04/22 05:10:12;;;;;;;22.83;11.88;;;10.10;99.90;;;;;;6249735;22;20024;-78
2023/04/22 05:12:45;;;;;;;18.00;9.80;;;10.10;99.90;;;;;;6277164;22;20012;-78
2023/04/22 05:15:16;;;;;;;17.90;10.15;;;10.20;99.90;;;;;;6227317;22;20031;-78
2023/04/22 05:17:43;;;;;;;18.38;10.05;;;10.30;99.90;;;;;;6226225;22;20054;-78
2023/04/22 05:20:10;;;;;;;17.58;9.20;;;10.40;99.50;;;;;;6223945;22;20338;-78
2023/04/22 05:22:41;;;;;;;18.92;8.80;;;10.50;99.40;;;;;;6224897;22;20448;-78
2023/04/22 05:25:09;;;;;;;17.85;10.45;;;10.70;98.60;;;;;;6226055;22;20499;-78
2023/04/22 05:27:41;;;;;;;14.73;9.00;;;10.70;97.40;;;;;;6226322;22;20028;-78
2023/04/22 05:30:10;;;;;;;16.48;9.05;;;10.80;96.80;;;;;;6226020;22;20047;-78
2023/04/22 05:32:37;;;;;;;13.43;7.50;;;10.90;96.60;;;;;;6225821;22;20030;-78
2023/04/22 05:35:05;;;;;;;12.90;7.60;;;11.00;96.10;;;;;;6226730;22;20034;-78
2023/04/22 05:37:33;;;;;;;12.55;8.18;;;11.10;94.50;;;;;;6251013;22;20031;-78
2023/04/22 05:40:00;;;;;;;13.38;7.82;;;11.10;94.10;;;;;;6224349;22;20023;-78
2023/04/22 05:42:27;;;;;;;12.05;6.85;;;11.20;94.00;;;;;;6226128;22;20079;-78
2023/04/22 05:44:54;;;;;;;14.05;7.05;;;11.40;92.90;;;;;;6224438;22;20019;-78
2023/04/22 05:47:21;;;;;;;16.13;8.77;;;11.60;92.20;;;;;;6249494;22;20355;-78
2023/04/22 05:49:49;;;;;;;14.60;8.23;;;11.70;93.50;;;;;;6250338;22;20039;-78
2023/04/22 05:52:22;;;;;;;13.20;6.63;;;11.90;93.20;;;;;;6226887;22;20069;-78
2023/04/22 05:55:02;;;;;;;8.68;5.55;;;12.00;91.90;;;;;;6249974;22;20066;-78
2023/04/22 05:57:30;;;;;;;8.40;5.10;;;12.10;89.90;;;;;;6226161;22;20020;-78
2023/04/22 05:59:59;;;;;;;10.57;5.03;;;12.30;88.20;;;;;;6225942;22;20081;-78
2023/04/22 06:02:27;;;;;;;8.23;5.10;;;12.40;86.20;;;;;;6250754;22;20097;-78
2023/04/22 06:04:55;;;;;;;10.65;5.13;;;12.50;85.20;;;;;;6227074;22;20027;-78
2023/04/22 06:07:23;;;;;;;8.93;4.75;;;12.70;84.80;;;;;;6277284;22;20015;-77
2023/04/22 06:09:50;;;;;;;9.18;4.43;;;12.90;84.10;;;;;;6226963;22;20030;-78
2023/04/22 06:12:30;;;;;;;10.10;4.45;;;13.10;82.30;;;;;;6250870;22;20020;-77
2023/04/22 06:14:57;;;;;;;7.82;3.58;;;13.30;81.00;;;;;;6225660;22;20019;-78
2023/04/22 06:17:24;;;;;;;7.85;4.47;;;13.40;79.20;;;;;;6251114;22;20037;-78
2023/04/22 06:19:52;;;;;;;6.20;3.60;;;13.60;77.60;;;;;;6222524;22;20031;-78
2023/04/22 06:22:20;;;;;;;6.68;3.63;;;13.80;75.10;;;;;;6249321;22;20098;-78
2023/04/22 06:24:47;;;;;;;7.63;3.60;;;14.00;74.60;;;;;;6251475;22;20390;-78
2023/04/22 06:27:15;;;;;;;6.93;3.58;;;14.10;75.70;;;;;;6223774;22;20098;-78
2023/04/22 06:29:42;;;;;;;8.15;3.88;;;14.30;73.30;;;;;;6222930;22;20104;-78
2023/04/22 06:32:10;;;;;;;6.60;2.97;;;14.30;73.80;;;;;;6224546;22;20027;-78
2023/04/22 06:34:37;;;;;;;6.10;3.08;;;14.40;70.60;;;;;;6223502;22;20024;-78
2023/04/22 06:37:05;;;;;;;5.72;3.53;;;14.60;70.80;;;;;;6221332;22;20642;-78
2023/04/22 06:39:32;;;;;;;6.45;3.25;;;14.60;71.40;;;;;;6224174;22;20038;-77
2023/04/22 06:42:21;;;;;;;8.40;3.30;;;14.90;70.60;;;;;;6226506;22;20026;-76
2023/04/22 06:45:11;;;;;;;7.32;3.13;;;15.10;67.20;;;;;;6275068;22;20020;-77
2023/04/22 06:47:54;;;;;;;6.35;3.35;;;15.30;66.90;;;;;;6225690;22;20019;-76
2023/04/22 06:50:28;;;;;;;5.70;2.75;;;15.50;66.80;;;;;;6246291;22;20019;-77
2023/04/22 06:52:57;;;;;;;6.07;3.28;;;15.50;66.30;;;;;;6220528;22;20020;-76
2023/04/22 06:55:24;;;;;;;4.85;2.70;;;15.60;63.40;;;;;;6247136;22;20031;-78
2023/04/22 06:57:51;;;;;;;7.32;3.15;;;15.60;63.10;;;;;;6223772;22;20106;-78
2023/04/22 07:00:19;;;;;;;7.45;2.83;;;15.80;64.60;;;;;;6222062;22;20030;-78
2023/04/22 07:02:46;;;;;;;8.18;2.50;;;15.90;64.40;;;;;;6221491;22;20077;-78
2023/04/22 07:05:14;;;;;;;6.05;3.13;;;16.10;65.20;;;;;;6223194;22;20062;-77
2023/04/22 07:07:42;;;;;;;4.43;2.00;;;16.10;63.50;;;;;;6221987;22;20031;-77
2023/04/22 07:10:16;;;;;;;6.97;3.28;;;16.20;65.40;;;;;;6245208;22;20098;-76
2023/04/22 07:13:01;;;;;;;6.43;3.25;;;16.30;63.50;;;;;;6224451;22;20019;-77
2023/04/22 07:15:29;;;;;;;6.72;3.22;;;16.30;62.60;;;;;;6222283;22;20051;-78
2023/04/22 07:17:56;;;;;;;6.45;2.83;;;16.40;62.20;;;;;;6222264;22;20047;-78
2023/04/22 07:20:23;;;;;;;6.40;3.03;;;16.50;62.00;;;;;;6219638;22;20031;-78
2023/04/22 07:22:51;;;;;;;8.65;3.80;;;16.60;62.40;;;;;;6222914;22;20023;-78
2023/04/22 07:25:18;;;;;;;6.10;2.67;;;16.60;62.50;;;;;;6223252;22;20023;-78
2023/04/22 07:27:45;;;;;;;5.90;3.45;;;16.70;63.10;;;;;;6221248;22;20100;-76
2023/04/22 07:30:12;;;;;;;7.00;2.85;;;16.90;64.00;;;;;;6220313;22;20034;-76
2023/04/22 07:32:39;;;;;;;6.13;3.30;;;16.90;63.40;;;;;;6221636;22;20019;-76
2023/04/22 07:35:07;;;;;;;6.88;3.58;;;17.10;63.80;;;;;;6247461;22;20058;-76
2023/04/22 07:37:34;;;;;;;7.88;3.47;;;17.20;63.50;;;;;;6247968;22;20026;-77
2023/04/22 07:40:01;;;;;;;6.28;3.05;;;17.30;63.80;;;;;;6222133;22;20734;-77
2023/04/22 07:42:29;;;;;;;6.65;3.42;;;17.30;63.40;;;;;;6247743;22;20023;-78
2023/04/22 07:44:56;;;;;;;8.40;3.28;;;17.50;64.10;;;;;;6246139;22;20753;-78
2023/04/22 07:47:23;;;;;;;5.30;3.17;;;17.60;63.20;;;;;;6221593;22;20042;-78
2023/04/22 07:49:50;;;;;;;5.88;3.30;;;17.60;62.90;;;;;;6223998;22;20340;-77
2023/04/22 07:52:18;;;;;;;3.50;2.78;;;17.70;62.50;;;;;;6223917;22;20020;-76
2023/04/22 07:54:45;;;;;;;6.13;3.55;;;17.80;62.50;;;;;;6224000;22;20023;-77
2023/04/22 07:57:12;;;;;;;4.88;2.78;;;18.00;63.20;;;;;;6225253;22;20027;-77
2023/04/22 07:59:39;;;;;;;5.50;3.00;;;18.10;60.60;;;;;;6249008;22;20020;-77
2023/04/22 08:02:07;;;;;;;7.13;3.58;;;18.00;60.70;;;;;;6250184;22;20019;-78
2023/04/22 08:04:34;;;;;;;6.10;3.00;;;18.00;60.20;;;;;;6223606;22;20021;-78
2023/04/22 08:07:02;;;;;;;7.28;2.88;;;18.00;58.40;;;;;;6248008;22;20439;-78
2023/04/22 08:09:49;;;;;;;5.80;3.35;;;18.10;59.50;;;;;;6254224;22;20497;-78
2023/04/22 08:12:17;;;;;;;5.10;3.42;;;18.10;59.90;;;;;;6223823;22;20016;-77
2023/04/22 08:14:44;;;;;;;6.35;3.28;;;18.30;60.20;;;;;;6249250;22;20049;-78
2023/04/22 08:17:11;;;;;;;6.07;3.38;;;18.40;60.40;;;;;;6249766;22;20024;-78
2023/04/22 08:19:38;;;;;;;6.00;3.13;;;18.60;60.70;;;;;;6249945;22;20016;-77
2023/04/22 08:22:06;;;;;;;8.60;3.65;;;18.70;60.20;;;;;;6223695;22;20375;-77
2023/04/22 08:24:33;;;;;;;6.32;2.60;;;18.70;57.00;;;;;;6245997;22;20012;-77
2023/04/22 08:27:01;;;;;;;5.97;2.50;;;18.50;56.20;;;;;;6246938;22;20019;-78
2023/04/22 08:29:28;;;;;;;6.20;3.33;;;18.60;57.00;;;;;;6248574;22;20024;-77
2023/04/22 08:31:55;;;;;;;6.57;3.03;;;18.80;58.10;;;;;;6274878;22;20065;-77
2023/04/22 08:34:23;;;;;;;7.75;3.50;;;19.00;57.40;;;;;;6223412;22;20474;-77
2023/04/22 08:36:51;;;;;;;5.30;2.80;;;19.10;57.70;;;;;;6248308;22;20142;-78
2023/04/22 08:39:18;;;;;;;6.18;3.60;;;19.20;58.20;;;;;;6247320;22;20023;-76
2023/04/22 08:41:46;;;;;;;4.97;3.08;;;19.20;57.60;;;;;;6222435;22;20023;-77
2023/04/22 08:44:14;;;;;;;4.85;2.78;;;19.20;59.90;;;;;;6219467;22;20033;-77
2023/04/22 08:46:47;;;;;;;4.75;3.17;;;19.30;57.10;;;;;;6247378;22;20026;-78
2023/04/22 08:49:15;;;;;;;8.57;3.40;;;19.20;55.00;;;;;;6273612;22;20015;-76
2023/04/22 08:51:43;;;;;;;8.00;3.40;;;19.20;55.80;;;;;;6247614;22;20012;-77
2023/04/22 08:54:10;;;;;;;5.95;3.60;;;19.30;55.40;;;;;;6221934;22;20118;-77
2023/04/22 08:56:44;;;;;;;4.97;3.10;;;19.40;55.60;;;;;;6273645;22;20710;-78
2023/04/22 08:59:12;;;;;;;5.82;2.97;;;19.50;56.90;;;;;;6222226;22;20026;-77
2023/04/22 09:01:40;;;;;;;5.05;2.67;;;19.50;55.20;;;;;;6249918;22;20047;-76
2023/04/22 09:04:13;;;;;;;5.85;2.67;;;19.60;56.20;;;;;;6273889;22;20015;-76
2023/04/22 09:06:41;;;;;;;7.78;3.88;;;19.70;55.90;;;;;;6244584;22;20028;-76
2023/04/22 09:09:08;;;;;;;4.80;3.13;;;19.70;53.90;;;;;;6272534;22;20533;-76
2023/04/22 09:11:36;;;;;;;4.85;3.10;;;19.70;54.50;;;;;;6221241;22;20020;-78
2023/04/22 09:14:06;;;;;;;5.20;2.60;;;19.80;55.00;;;;;;6221241;22;20350;-75
2023/04/22 09:16:41;;;;;;;5.45;3.30;;;19.90;54.60;;;;;;6220283;22;20115;-77
2023/04/22 09:19:12;;;;;;;5.05;2.65;;;20.00;56.80;;;;;;6248061;22;20102;-78
2023/04/22 09:21:43;;;;;;;5.60;2.72;;;20.00;55.60;;;;;;6223405;22;20034;-77
2023/04/22 09:24:12;;;;;;;;;;;20.00;54.00;;;;;;6220468;22;20015;-77
2023/04/22 09:26:40;;;;;;;5.70;3.20;;;20.10;53.70;;;;;;6249419;22;19990;-76
2023/04/22 09:29:13;;;;;;;6.45;3.08;;;20.00;53.30;;;;;;6221482;22;20023;-78
2023/04/22 09:31:40;;;;;;;6.30;3.15;;;20.00;54.50;;;;;;6223078;22;20497;-77
2023/04/22 09:34:07;;;;;;;6.97;3.35;;;20.00;54.20;;;;;;6220259;22;20023;-76
2023/04/22 09:36:37;;;;;;;4.97;2.95;;;20.00;53.10;;;;;;6221906;22;20030;-77
2023/04/22 09:39:07;;;;;;;4.63;2.58;;;20.00;53.40;;;;;;6248115;22;20030;-78
2023/04/22 09:41:38;;;;;;;5.07;3.00;;;20.20;54.30;;;;;;6247925;22;20835;-77
2023/04/22 09:44:13;;;;;;;7.32;3.10;;;20.30;52.60;;;;;;6248572;22;20043;-78
2023/04/22 09:46:42;;;;;;;5.35;2.72;;;20.30;52.70;;;;;;6224222;22;20019;-78
2023/04/22 09:49:10;;;;;;;6.28;2.90;;;20.40;53.60;;;;;;6223291;22;20031;-78
2023/04/22 09:51:41;;;;;;;4.68;2.88;;;20.40;54.40;;;;;;6221566;22;20023;-77
2023/04/22 09:54:10;;;;;;;4.97;2.78;;;20.40;53.20;;;;;;6247914;22;20077;-78
2023/04/22 09:56:51;;;;;;;5.60;3.03;;;20.40;52.50;;;;;;6221868;22;20011;-76
2023/04/22 09:59:30;;;;;;;7.40;3.25;;;20.60;52.80;;;;;;6241272;22;20404;-75
2023/04/22 10:02:02;;;;;;;6.60;3.75;;;20.80;54.00;;;;;;6248097;22;20020;-77
2023/04/22 10:04:30;;;;;;;6.50;3.77;;;20.80;52.30;;;;;;6220463;22;20054;-76
2023/04/22 10:06:58;;;;;;;9.05;3.40;;;20.80;51.80;;;;;;6248988;22;20706;-78
2023/04/22 10:09:25;;;;;;;6.03;3.15;;;20.90;52.90;;;;;;6220732;22;20019;-78
2023/04/22 10:11:56;;;;;;;6.38;3.53;;;20.70;51.30;;;;;;6246040;22;20037;-77
2023/04/22 10:14:24;;;;;;;5.43;3.20;;;20.80;55.10;;;;;;6247378;22;20030;-78
2023/04/22 10:16:56;;;;;;;5.15;3.08;;;20.20;52.90;;;;;;6246933;22;20648;-78
2023/04/22 10:19:25;;;;;;;5.25;3.00;;;19.90;55.10;;;;;;6245986;22;20028;-77
2023/04/22 10:21:55;;;;;;;5.80;3.55;;;19.60;52.90;;;;;;6221003;22;20023;-77
2023/04/22 10:24:26;;;;;;;6.78;3.55;;;19.60;54.20;;;;;;6221062;22;20019;-77
2023/04/22 10:26:55;;;;;;;5.85;2.88;;;20.10;56.90;;;;;;6220063;22;20094;-77
2023/04/22 10:29:24;;;;;;;4.45;2.58;;;20.10;54.50;;;;;;6245809;22;20404;-77
2023/04/22 10:32:02;;;;;;;5.93;3.05;;;20.00;54.50;;;;;;6221041;22;20069;-77
2023/04/22 10:34:32;;;;;;;5.97;3.20;;;20.40;54.70;;;;;;6246369;22;20126;-78
2023/04/22 10:37:05;;;;;;;6.40;2.75;;;20.80;55.00;;;;;;6273084;22;20026;-76
2023/04/22 10:39:32;;;;;;;3.83;2.72;;;21.00;51.70;;;;;;6246023;22;20443;-77
2023/04/22 10:42:02;;;;;;;6.90;3.65;;;21.30;53.30;;;;;;6221800;22;20028;-78
2023/04/22 10:44:44;;;;;;;7.90;3.05;;;21.40;51.30;;;;;;6245494;22;20102;-77
2023/04/22 10:47:11;;;;;;;3.93;2.73;;;20.70;51.80;;;;;;6246289;22;20784;-78
2023/04/22 10:49:38;;;;;;;4.00;3.13;;;20.40;53.70;;;;;;6245852;22;20704;-78
2023/04/22 10:52:07;;;;;;;5.82;3.03;;;20.20;52.40;;;;;;6248338;22;20016;-77
2023/04/22 10:54:37;;;;;;;4.50;2.83;;;20.20;51.50;;;;;;6222100;22;20032;-77
2023/04/22 10:57:18;;;;;;;5.18;3.10;;;20.00;52.40;;;;;;6247061;22;20028;-78
2023/04/22 10:59:48;;;;;;;6.57;2.90;;;20.20;52.00;;;;;;6221484;22;20023;-78
2023/04/22 11:02:17;;;;;;;4.75;3.00;;;20.20;52.50;;;;;;6222337;22;20023;-77
2023/04/22 11:04:45;;;;;;;7.07;2.60;;;20.30;53.10;;;;;;6221187;22;20048;-77
2023/04/22 11:07:21;;;;;;;4.60;2.63;;;20.10;55.00;;;;;;6245915;22;20024;-78
2023/04/22 11:09:50;;;;;;;5.78;2.95;;;20.00;54.70;;;;;;6246397;22;20058;-77
2023/04/22 11:12:38;;;;;;;3.25;2.50;;;20.00;53.50;;;;;;6219721;22;20797;-77
2023/04/22 11:15:14;;;;;;;3.42;2.30;;;19.80;51.80;;;;;;6272231;22;20046;-77
2023/04/22 11:17:44;;;;;;;5.55;3.28;;;19.70;52.70;;;;;;6273918;22;20028;-77
2023/04/22 11:20:13;;;;;;;12.40;7.03;;;19.60;52.70;;;;;;6246223;22;20637;-76
2023/04/22 11:22:42;;;;;;;7.43;3.17;;;19.50;51.80;;;;;;6247483;22;20020;-77
2023/04/22 11:25:10;;;;;;;5.15;3.38;;;19.40;54.40;;;;;;6248108;22;20023;-76
2023/04/22 11:27:42;;;;;;;4.32;2.97;;;19.30;55.50;;;;;;6223985;22;20485;-77
2023/04/22 11:30:11;;;;;;;;;;;19.30;54.90;;;;;;6275065;22;20020;-78
2023/04/22 11:32:46;;;;;;;5.43;3.35;;;19.20;54.80;;;;;;6221807;22;19919;-78
2023/04/22 11:35:16;;;;;;;8.88;5.13;;;19.20;54.40;;;;;;6222169;22;20394;-77
2023/04/22 11:37:46;;;;;;;6.30;3.38;;;19.20;54.20;;;;;;6249602;22;20050;-77
2023/04/22 11:40:25;;;;;;;7.90;3.60;;;19.20;53.40;;;;;;6248829;22;20129;-77
2023/04/22 11:43:01;;;;;;;4.05;2.67;;;19.20;54.00;;;;;;6222847;22;20023;-77
2023/04/22 11:45:29;;;;;;;6.18;3.63;;;19.30;53.10;;;;;;6248761;22;20090;-77
2023/04/22 11:47:57;;;;;;;5.63;2.92;;;19.40;53.00;;;;;;6224403;22;20039;-75
2023/04/22 11:50:27;;;;;;;6.78;2.60;;;19.50;52.50;;;;;;6222391;22;20038;-78
2023/04/22 11:52:55;;;;;;;5.47;3.42;;;20.30;52.80;;;;;;6220995;22;20024;-77
2023/04/22 11:55:24;;;;;;;4.47;2.40;;;20.80;50.80;;;;;;6222694;22;20118;-76
2023/04/22 11:57:58;;;;;;;4.50;2.30;;;21.30;51.00;;;;;;6247961;22;20502;-77
2023/04/22 12:00:33;;;;;;;4.28;2.17;;;21.30;47.80;;;;;;6249918;22;20030;-76
2023/04/22 12:03:03;;;;;;;3.33;1.63;;;21.60;47.70;;;;;;6219008;22;20061;-78
2023/04/22 12:05:51;;;;;;;3.53;2.28;;;21.50;46.70;;;;;;6264311;22;20016;-76
2023/04/22 12:08:23;;;;;;;3.17;2.30;;;21.50;47.70;;;;;;6236035;22;20035;-76
2023/04/22 12:10:56;;;;;;;3.70;2.10;;;21.50;49.60;;;;;;6236757;22;20474;-77
2023/04/22 12:13:36;;;;;;;4.18;2.35;;;21.60;49.20;;;;;;6210158;22;20019;-75
2023/04/22 12:16:16;;;;;;;5.32;2.17;;;21.40;48.70;;;;;;6210672;22;20047;-78
2023/04/22 12:18:47;;;;;;;4.93;2.45;;;20.90;48.20;;;;;;6211875;22;20055;-75
2023/04/22 12:21:16;;;;;;;6.13;2.47;;;20.50;48.90;;;;;;6263045;22;20352;-76
2023/04/22 12:23:50;;;;;;;6.05;2.42;;;20.50;50.40;;;;;;6234726;22;20023;-76
2023/04/22 12:26:19;;;;;;;3.63;2.08;;;20.50;49.70;;;;;;6232626;22;20027;-76
2023/04/22 12:28:47;;;;;;;5.68;2.63;;;20.40;50.10;;;;;;6210493;22;20023;-75
2023/04/22 12:31:15;;;;;;;3.83;2.50;;;20.30;50.20;;;;;;6236479;22;20020;-77
2023/04/22 12:33:43;;;;;;;5.40;2.60;;;20.30;49.70;;;;;;6262163;22;20065;-77
2023/04/22 12:36:10;;;;;;;3.03;2.00;;;20.30;51.00;;;;;;6235632;22;20019;-74
2023/04/22 12:38:38;;;;;;;5.03;2.10;;;20.10;48.80;;;;;;6236701;22;20490;-77
2023/04/22 12:41:06;;;;;;;3.00;1.70;;;20.10;50.60;;;;;;6211635;22;20450;-77
2023/04/22 12:43:38;;;;;;;6.05;2.58;;;20.00;49.30;;;;;;6236344;22;20171;-77
2023/04/22 12:46:06;;;;;;;5.95;3.10;;;20.00;52.00;;;;;;6213045;22;20450;-77
2023/04/22 12:48:37;;;;;;;3.72;2.63;;;20.00;50.20;;;;;;6212016;22;20020;-77
2023/04/22 12:51:05;;;;;;;4.65;2.20;;;19.90;50.30;;;;;;6211078;22;20023;-77